الصفحة الرئيسية
METAR-TAF:

METAR-TAF

مطار :

يانغون, بورما

دائرة عرض: 16-46N, خط طول: 096-10E, ارتفاع: 14 متر

مراقبة الطقس الحالي

تاريخ ووقت الإصدار 24 دقيقة قبل الساعة 00:30UTC
ريح 2 عقدة من الشرق/الشمال الشرقي
درجة الحرارة 26°درجة مئوية
الرطوبة 94%
ضغط 1010 hPa
الرؤية: 7000 متر
غيوم متفرقة على ارتفاع 2000 قدم
غيوم متفرقة على ارتفاع 12000 قدم

METAR: VYYY 190030Z 06002KT 7000 SCT020 SCT120 26/25 Q1010 NOSIG

زمن: 07:24 (00:54 UTC)

توقعات

تاريخ ووقت الإصدار 1ساعة و 54 دقيقة قبل الساعة 23:00UTC
التوقعات صالحة من19 الساعة 00 UTC إلى 19 الساعة 24 UTC
ريح 3 عقدة من الغرب/الجنوب الغربي
الرؤية: 7000 متر
غيوم مفككة على ارتفاع 2000 قدم
غيوم قليلة على ارتفاع 2500 قدم, مزنة ركامية.
غيوم مفككة على ارتفاع 10000 قدم
مؤقت
من 19 الساعة 00 UTC إلى 19 الساعة 06 UTC
ريح 5 عقدة من الغرب/الجنوب الغربي
الرؤية: 5000 متر
غيوم مفككة على ارتفاع 1500 قدم
غيوم قليلة على ارتفاع 2000 قدم, مزنة ركامية.
ملبد بالغيوم على ارتفاع 9000 قدم
مطر خفيف

TAF: VYYY 182300Z 1900/1924 24003KT 7000 BKN020 FEW025CB BKN100 TEMPO 1900/1906 24005KT 5000 -RA BKN015 FEW020CB OVC090

أرصاد الطقس والتوقعات من أكثر من 4000 مطار (تقارير الطقس للمطار METAR والتنبؤ بالطقس بالمطارTAF).

المحطات المتاحة هي النقط الصفراء والحمراء على الخريطة.

حرك المؤشر فوق النقطة لمعرفة اسم المحطة.

ثم انقر لمعرفة أرصاد وتوقعات الطقس.

لتغيير الخارطة: اضغط على الأزرار الخضراء مع رمز الصليب الأسود للتكبير. على الزر الأخضر مع شرطة للتصغير، أو على الأسهم الخضراء للخرائط المجاورة.


METAR-TAF: